world map with ILZ marked

ILZ - Airport

This information may not be accurate or current and is not valid for navigation or flight planning. No warranty of fitness for any purpose is made or implied.

flag of Slovakia

Donate via PayPal

Additional information is available on the NEW Great Circle Mapper

Location
City:  Zilina, Slovakia
ICAO / IATA:LZZI / ILZ

Details
Type:Airport (Aerodrome, Airfield)
Use:Public/Civil
Latitude:49°13'54"N (49.231528)
Longitude:18°36'49"E (18.613500)
Datum:WGS 1984
Elevation:1020 ft (311 m)
Runways:1
Longest:3773 × 98 ft (1150 × 30 m)

Time
Timezone:UTC+1 (DST+4)
Local Time:

Weather
METAR:LZZI  041400Z 05004KT 9999 -SN BKN019 BKN027 01/M02 Q1028
TAF:LZZI  (expired)

Related Locations
Nearby:
Farthest:CHT: 11629 mi / 18715 km
Waitangi [Tuuta], CIT, NZ

Find:

   beyond  
but within

Other Information
Maps:
Sources:

  


 


Great Circle Mapper   Great Circle Mapper
Great Circle Mapper FAQ   Great Circle Mapper FAQ
  Karl's Home Page
KLSē   KLSē Home
   GC on Facebook
Airlines of the World   Airlines of the World
Donate via PayPal


Copyright © 2004-2019, Karl L. Swartz. All rights reserved.
All trademarks mentioned herein belong to their respective owners.

Please see credits for attribution and copyright information.

Karl Swartz <karl@kls2.com>
  Powered by FreeBSD
Valid HTML 4.01!
Labeled with ICRA
hCard Microformat
Geo Microformat